Time;durP1;ratioP1;P1;durP2;ratioP2;P2;SDS_P1;SDS_P2;PMS_P1;PMS_P2;Temp;Humidity;BMP_temperature;BMP_pressure;BME280_temperature;BME280_humidity;BME280_pressure;Samples;Min_cycle;Max_cycle;Signal;HPM_P1;HPM_P2
2023/01/13 00:00:47;;;;;;;44.30;5.65;;;9.20;99.90;;;;;;5070717;28;20079;-55
2023/01/13 00:03:14;;;;;;;37.72;5.80;;;9.10;99.90;;;;;;5070896;28;20087;-57
2023/01/13 00:05:42;;;;;;;40.70;6.20;;;9.00;99.90;;;;;;5052491;28;20061;-56
2023/01/13 00:08:09;;;;;;;41.72;5.78;;;9.00;99.90;;;;;;5070256;28;20044;-56
2023/01/13 00:10:36;;;;;;;37.63;5.68;;;9.00;99.90;;;;;;5052044;28;20102;-49
2023/01/13 00:13:04;;;;;;;39.20;5.75;;;8.90;99.90;;;;;;5069121;28;20053;-53
2023/01/13 00:15:31;;;;;;;44.78;5.82;;;8.90;99.90;;;;;;5057927;28;20471;-53
2023/01/13 00:17:57;;;;;;;35.78;6.15;;;8.80;99.90;;;;;;5063314;28;20051;-56
2023/01/13 00:20:24;;;;;;;41.00;6.10;;;8.80;99.90;;;;;;5071340;28;20048;-55
2023/01/13 00:22:54;;;;;;;45.88;6.63;;;8.80;99.90;;;;;;5070394;28;20459;-56
2023/01/13 00:25:20;;;;;;;53.38;7.22;;;8.70;99.90;;;;;;5052882;28;20056;-56
2023/01/13 00:27:47;;;;;;;41.20;6.43;;;8.70;99.90;;;;;;5067207;28;20045;-54
2023/01/13 00:30:15;;;;;;;44.72;6.70;;;8.70;99.90;;;;;;5070232;28;20079;-57
2023/01/13 00:32:41;;;;;;;55.20;8.23;;;8.60;99.90;;;;;;5052480;28;20102;-56
2023/01/13 00:35:08;;;;;;;50.05;7.75;;;8.60;99.90;;;;;;5067616;28;20101;-57
2023/01/13 00:37:36;;;;;;;50.63;7.05;;;8.50;99.90;;;;;;5070876;28;20499;-56
2023/01/13 00:40:06;;;;;;;53.13;8.50;;;8.50;99.90;;;;;;5071085;28;20055;-56
2023/01/13 00:45:17;;;;;;;50.88;7.85;;;8.50;99.90;;;;;;5072566;28;20044;-55
2023/01/13 00:47:44;;;;;;;54.08;9.10;;;8.40;99.90;;;;;;5052099;28;20122;-56
2023/01/13 00:50:11;;;;;;;49.58;8.27;;;8.40;99.90;;;;;;5068310;28;20056;-56
2023/01/13 00:52:38;;;;;;;60.83;8.15;;;8.30;99.90;;;;;;5069767;28;20048;-56
2023/01/13 00:55:07;;;;;;;53.58;8.48;;;8.30;99.90;;;;;;5069294;28;20492;-51
2023/01/13 00:57:34;;;;;;;57.90;6.95;;;8.30;99.90;;;;;;5071205;28;20049;-46
2023/01/13 01:00:01;;;;;;;52.05;7.88;;;8.20;99.90;;;;;;5072057;28;20052;-56
2023/01/13 01:02:28;;;;;;;49.92;7.47;;;8.20;99.90;;;;;;5070774;28;20056;-57
2023/01/13 01:04:54;;;;;;;50.35;7.75;;;8.20;99.90;;;;;;5064836;28;20102;-56
2023/01/13 01:07:21;;;;;;;46.45;6.45;;;8.20;99.90;;;;;;5070673;28;20049;-55
2023/01/13 01:09:49;;;;;;;47.53;6.85;;;8.10;99.90;;;;;;5051564;28;20141;-52
2023/01/13 01:12:17;;;;;;;61.95;8.50;;;8.10;99.90;;;;;;5065433;28;20048;-55
2023/01/13 01:14:44;;;;;;;47.45;6.88;;;8.10;99.90;;;;;;5056656;28;20106;-56
2023/01/13 01:17:11;;;;;;;41.33;6.60;;;8.10;99.90;;;;;;5075234;28;20056;-56
2023/01/13 01:19:38;;;;;;;59.10;7.25;;;8.20;99.90;;;;;;5074456;28;20049;-56
2023/01/13 01:22:05;;;;;;;42.97;6.57;;;8.10;99.90;;;;;;5072023;28;20084;-56
2023/01/13 01:24:31;;;;;;;36.13;6.20;;;8.20;99.90;;;;;;5056538;28;20140;-56
2023/01/13 01:26:58;;;;;;;39.28;7.30;;;8.10;99.90;;;;;;5073482;28;20496;-57
2023/01/13 01:29:26;;;;;;;46.67;5.88;;;8.20;99.90;;;;;;5056880;28;20092;-56
2023/01/13 01:31:53;;;;;;;44.78;6.10;;;8.10;99.90;;;;;;5072978;28;20110;-56
2023/01/13 01:34:20;;;;;;;38.70;6.97;;;8.10;99.90;;;;;;5063749;28;20447;-56
2023/01/13 01:36:47;;;;;;;39.13;6.10;;;8.10;99.90;;;;;;5059162;28;20565;-55
2023/01/13 01:39:13;;;;;;;31.55;5.72;;;8.10;99.90;;;;;;5075582;28;20082;-56
2023/01/13 01:43:57;;;;;;;45.47;6.35;;;8.10;99.90;;;;;;5053673;28;20041;-55
2023/01/13 01:44:55;;;;;;;36.70;5.47;;;8.10;99.90;;;;;;5062373;28;20053;-53
2023/01/13 01:47:22;;;;;;;46.90;6.22;;;8.10;99.90;;;;;;5055106;28;20053;-56
2023/01/13 01:49:48;;;;;;;40.13;6.45;;;8.00;99.90;;;;;;5067255;28;20094;-56
2023/01/13 01:52:16;;;;;;;41.58;6.05;;;8.10;99.90;;;;;;5071090;28;20049;-54
2023/01/13 01:54:46;;;;;;;40.20;5.85;;;8.00;99.90;;;;;;5052262;28;20077;-55
2023/01/13 01:57:15;;;;;;;46.08;5.85;;;8.10;99.90;;;;;;5052228;28;20095;-54
2023/01/13 01:59:42;;;;;;;48.28;6.00;;;8.00;99.90;;;;;;5068635;28;20537;-55
2023/01/13 02:02:10;;;;;;;38.00;6.32;;;8.00;99.90;;;;;;5072487;28;20080;-55
2023/01/13 02:04:39;;;;;;;37.83;5.43;;;8.00;99.90;;;;;;5070146;28;20098;-56
2023/01/13 02:07:06;;;;;;;46.90;7.10;;;8.00;99.90;;;;;;5055840;28;20466;-47
2023/01/13 02:09:33;;;;;;;43.78;5.90;;;8.00;99.90;;;;;;5054744;28;20096;-56
2023/01/13 02:14:44;;;;;;;37.25;5.95;;;8.00;99.90;;;;;;5067171;28;20053;-55
2023/01/13 02:17:19;;;;;;;42.00;7.05;;;8.00;99.90;;;;;;5053021;28;20060;-55
2023/01/13 02:20:28;;;;;;;46.28;6.50;;;8.00;99.90;;;;;;5054613;28;20488;-54
2023/01/13 02:26:09;;;;;;;37.03;6.82;;;8.00;99.90;;;;;;5059526;28;20053;-44
2023/01/13 02:31:40;;;;;;;43.78;6.82;;;7.90;99.90;;;;;;5069642;28;20131;-56
2023/01/13 02:31:43;;;;;;;57.42;7.35;;;7.90;99.90;;;;;;5072047;28;20040;-54
2023/01/13 02:34:11;;;;;;;56.50;6.40;;;7.90;99.90;;;;;;5051136;28;20052;-54
2023/01/13 02:36:39;;;;;;;48.40;6.03;;;7.90;99.90;;;;;;5055458;28;20087;-55
2023/01/13 02:39:10;;;;;;;50.92;7.03;;;7.90;99.90;;;;;;5073881;28;20048;-55
2023/01/13 02:44:25;;;;;;;44.95;7.13;;;7.80;99.90;;;;;;5071057;28;20307;-54
2023/01/13 02:46:54;;;;;;;47.63;7.93;;;7.80;99.90;;;;;;5056082;28;20076;-56
2023/01/13 02:49:29;;;;;;;50.97;7.53;;;7.80;99.90;;;;;;5073527;28;20092;-55
2023/01/13 02:51:59;;;;;;;39.22;6.07;;;7.80;99.90;;;;;;5053426;28;20110;-54
2023/01/13 02:54:27;;;;;;;47.08;8.13;;;7.70;99.90;;;;;;5071504;28;20135;-54
2023/01/13 02:56:54;;;;;;;47.42;6.57;;;7.70;99.90;;;;;;5072232;28;20064;-55
2023/01/13 02:59:21;;;;;;;42.38;6.15;;;7.70;99.90;;;;;;5073587;28;20083;-55
2023/01/13 03:01:49;;;;;;;51.20;6.78;;;7.70;99.90;;;;;;5070204;28;20063;-53
2023/01/13 03:04:51;;;;;;;45.83;6.93;;;7.70;99.90;;;;;;5070437;28;20044;-55
2023/01/13 03:07:22;;;;;;;;;;;7.80;99.90;;;;;;5068276;28;20087;-51
2023/01/13 03:09:53;;;;;;;50.83;7.05;;;7.70;99.90;;;;;;5074106;28;20342;-55
2023/01/13 03:12:23;;;;;;;39.15;6.32;;;7.70;99.90;;;;;;5070910;28;20045;-54
2023/01/13 03:14:52;;;;;;;50.15;8.32;;;7.70;99.90;;;;;;5072775;28;20056;-56
2023/01/13 03:17:22;;;;;;;47.38;6.63;;;7.80;99.90;;;;;;5071033;28;20052;-52
2023/01/13 03:19:55;;;;;;;42.05;6.57;;;7.80;99.90;;;;;;5055604;28;20522;-54
2023/01/13 03:22:24;;;;;;;56.10;6.13;;;7.80;99.90;;;;;;5070955;28;20076;-55
2023/01/13 03:24:52;;;;;;;46.03;6.85;;;7.80;99.90;;;;;;5072098;28;20102;-55
2023/01/13 03:27:22;;;;;;;51.88;7.40;;;7.90;99.90;;;;;;5071209;28;20049;-54
2023/01/13 03:29:50;;;;;;;43.20;6.13;;;7.80;99.90;;;;;;5053643;28;20095;-55
2023/01/13 03:32:18;;;;;;;49.38;8.18;;;7.80;99.90;;;;;;5070458;28;20094;-53
2023/01/13 03:34:46;;;;;;;48.10;6.80;;;7.90;99.90;;;;;;5070804;28;20053;-55
2023/01/13 03:37:15;;;;;;;54.83;7.72;;;7.80;99.90;;;;;;5070313;28;20476;-55
2023/01/13 03:39:43;;;;;;;58.15;7.72;;;7.80;99.90;;;;;;5052921;28;20088;-54
2023/01/13 03:42:12;;;;;;;48.58;6.15;;;7.90;99.90;;;;;;5035775;28;20049;-55
2023/01/13 03:44:40;;;;;;;53.92;8.35;;;7.90;99.90;;;;;;5060993;28;20049;-55
2023/01/13 03:47:11;;;;;;;47.35;7.55;;;7.90;99.90;;;;;;5071727;28;20446;-56
2023/01/13 03:49:40;;;;;;;60.90;7.15;;;7.90;99.90;;;;;;5071709;28;20056;-52
2023/01/13 03:52:09;;;;;;;43.53;6.25;;;7.90;99.90;;;;;;5035777;28;20083;-54
2023/01/13 03:54:41;;;;;;;55.15;6.85;;;7.90;99.90;;;;;;5067215;28;20041;-55
2023/01/13 03:57:10;;;;;;;50.28;7.60;;;7.90;99.90;;;;;;5070613;28;20570;-55
2023/01/13 03:59:38;;;;;;;43.33;6.75;;;7.90;99.90;;;;;;5053629;28;20074;-54
2023/01/13 04:02:07;;;;;;;50.78;7.25;;;7.90;99.90;;;;;;5071393;28;20475;-55
2023/01/13 04:04:34;;;;;;;53.55;7.30;;;7.90;99.90;;;;;;5054517;28;20044;-55
2023/01/13 04:07:06;;;;;;;49.05;6.78;;;7.90;99.90;;;;;;5051538;28;20133;-54
2023/01/13 04:09:35;;;;;;;47.28;6.53;;;7.90;99.90;;;;;;5071152;28;20137;-55
2023/01/13 04:12:06;;;;;;;57.40;7.97;;;7.90;99.90;;;;;;5070221;28;20131;-53
2023/01/13 04:14:33;;;;;;;46.03;7.70;;;7.90;99.90;;;;;;5070615;28;20156;-53
2023/01/13 04:17:00;;;;;;;43.50;6.85;;;7.90;99.90;;;;;;5047415;28;20135;-54
2023/01/13 04:19:27;;;;;;;46.28;6.97;;;7.90;99.90;;;;;;5072567;28;20048;-56
2023/01/13 04:21:53;;;;;;;49.55;7.93;;;7.90;99.90;;;;;;5051251;28;20507;-55
2023/01/13 04:24:20;;;;;;;48.22;7.35;;;8.00;99.90;;;;;;5049226;28;20115;-54
2023/01/13 04:26:47;;;;;;;43.90;7.13;;;8.00;99.90;;;;;;5053341;28;20412;-54
2023/01/13 04:29:15;;;;;;;49.80;7.22;;;8.00;99.90;;;;;;5050200;28;20044;-55
2023/01/13 04:31:42;;;;;;;50.03;7.32;;;8.00;99.90;;;;;;5072443;28;20083;-52
2023/01/13 04:34:10;;;;;;;45.95;7.55;;;8.00;99.90;;;;;;5067433;28;20067;-55
2023/01/13 04:36:37;;;;;;;50.25;8.23;;;8.00;99.90;;;;;;5049618;28;20093;-54
2023/01/13 04:39:04;;;;;;;52.95;7.40;;;8.00;99.90;;;;;;5067478;28;20095;-54
2023/01/13 04:41:56;;;;;;;50.20;8.27;;;8.00;99.90;;;;;;5068526;28;20080;-54
2023/01/13 04:44:19;;;;;;;51.92;7.55;;;8.00;99.90;;;;;;5051941;28;20045;-54
2023/01/13 04:46:46;;;;;;;51.67;6.75;;;7.90;99.90;;;;;;5049154;28;20114;-49
2023/01/13 04:49:13;;;;;;;54.05;7.82;;;8.00;99.90;;;;;;5067654;28;20053;-54
2023/01/13 04:51:40;;;;;;;56.85;6.93;;;7.90;99.90;;;;;;5062219;28;20072;-54
2023/01/13 04:54:07;;;;;;;44.05;6.60;;;7.90;99.90;;;;;;5054560;28;20405;-54
2023/01/13 04:56:33;;;;;;;48.47;6.85;;;7.90;99.90;;;;;;5064880;28;20098;-55
2023/01/13 04:59:00;;;;;;;56.25;8.38;;;7.90;99.90;;;;;;5052597;28;20048;-55
2023/01/13 05:01:28;;;;;;;49.42;6.60;;;7.90;99.90;;;;;;5041666;28;20140;-50
2023/01/13 05:03:55;;;;;;;47.47;6.93;;;7.80;99.90;;;;;;5062640;28;20052;-52
2023/01/13 05:06:22;;;;;;;55.92;7.93;;;7.80;99.90;;;;;;5052783;28;20049;-48
2023/01/13 05:08:49;;;;;;;62.13;7.40;;;7.80;99.90;;;;;;5065231;28;20048;-51
2023/01/13 05:17:02;;;;;;;47.72;6.70;;;7.80;99.90;;;;;;5065061;28;20044;-54
2023/01/13 05:19:29;;;;;;;44.42;6.03;;;7.80;99.90;;;;;;5047546;28;20052;-55
2023/01/13 05:27:24;;;;;;;49.95;7.25;;;7.80;99.90;;;;;;5047986;28;20437;-49
2023/01/13 05:29:51;;;;;;;46.55;7.13;;;7.80;99.90;;;;;;5047918;28;20087;-55
2023/01/13 05:32:19;;;;;;;41.47;6.18;;;7.80;99.90;;;;;;5063001;28;20040;-55
2023/01/13 05:34:46;;;;;;;57.03;6.68;;;7.80;99.90;;;;;;5070155;28;20056;-55
2023/01/13 05:37:13;;;;;;;51.22;7.43;;;7.80;99.90;;;;;;5055877;28;20059;-51
2023/01/13 05:45:05;;;;;;;42.10;6.60;;;7.80;99.90;;;;;;5058142;28;20087;-50
2023/01/13 05:47:33;;;;;;;42.22;5.32;;;7.70;99.90;;;;;;5063249;28;20048;-55
2023/01/13 05:50:00;;;;;;;51.22;6.53;;;7.70;99.90;;;;;;5047024;28;20090;-48
2023/01/13 05:52:27;;;;;;;38.35;6.47;;;7.70;99.90;;;;;;5063570;28;20053;-50
2023/01/13 05:54:54;;;;;;;41.13;5.45;;;7.60;99.90;;;;;;5063153;28;20048;-55
2023/01/13 05:57:21;;;;;;;36.38;4.88;;;7.70;99.90;;;;;;5049369;28;20053;-51
2023/01/13 05:59:47;;;;;;;32.95;5.35;;;7.70;99.90;;;;;;5043535;28;20134;-52
2023/01/13 06:02:14;;;;;;;34.00;5.38;;;7.70;99.90;;;;;;5046223;28;20044;-54
2023/01/13 06:04:42;;;;;;;28.67;4.97;;;7.70;99.90;;;;;;5069162;28;20134;-51
2023/01/13 06:07:09;;;;;;;35.92;4.53;;;7.70;99.90;;;;;;5067397;28;20084;-53
2023/01/13 06:09:36;;;;;;;32.72;4.40;;;7.70;99.90;;;;;;5050401;28;20053;-53
2023/01/13 06:12:03;;;;;;;27.20;4.95;;;7.70;99.90;;;;;;5043930;28;20071;-52
2023/01/13 06:14:38;;;;;;;36.72;4.70;;;7.70;99.90;;;;;;5062600;28;20053;-53
2023/01/13 06:17:06;;;;;;;31.45;4.53;;;7.70;99.90;;;;;;5061719;28;20470;-53
2023/01/13 06:19:33;;;;;;;28.17;4.72;;;7.70;99.90;;;;;;5051004;28;20113;-54
2023/01/13 06:22:02;;;;;;;36.88;4.70;;;7.70;99.90;;;;;;5070555;28;20049;-47
2023/01/13 06:24:29;;;;;;;33.80;4.82;;;7.70;99.90;;;;;;5051991;28;20135;-55
2023/01/13 06:26:55;;;;;;;32.30;4.57;;;7.70;99.90;;;;;;5069308;28;20470;-54
2023/01/13 06:29:22;;;;;;;26.27;4.53;;;7.80;99.90;;;;;;5051989;28;20044;-53
2023/01/13 06:31:49;;;;;;;34.15;4.95;;;7.80;99.90;;;;;;5054063;28;20106;-48
2023/01/13 06:34:16;;;;;;;27.73;4.90;;;7.80;99.90;;;;;;5066689;28;20056;-54
2023/01/13 06:36:44;;;;;;;24.23;4.25;;;7.80;99.90;;;;;;5061232;28;20045;-55
2023/01/13 06:39:13;;;;;;;22.35;4.20;;;7.80;99.90;;;;;;5067403;28;20503;-54
2023/01/13 06:44:26;;;;;;;28.85;4.43;;;7.80;99.90;;;;;;5036651;28;20067;-50
2023/01/13 06:46:53;;;;;;;22.00;4.40;;;7.80;99.90;;;;;;5054455;28;20448;-52
2023/01/13 06:49:20;;;;;;;22.48;5.10;;;7.90;99.90;;;;;;5049564;28;20106;-55
2023/01/13 06:51:47;;;;;;;28.27;4.57;;;7.90;99.90;;;;;;5072962;28;20048;-45
2023/01/13 06:54:15;;;;;;;24.88;3.63;;;7.90;99.90;;;;;;5054874;28;20136;-52
2023/01/13 06:56:42;;;;;;;23.70;3.40;;;7.90;99.90;;;;;;5051417;28;20147;-55
2023/01/13 06:59:09;;;;;;;22.13;3.78;;;7.90;99.90;;;;;;5072718;28;20462;-46
2023/01/13 07:01:36;;;;;;;28.80;3.85;;;7.90;99.90;;;;;;5070925;28;20561;-50
2023/01/13 07:04:02;;;;;;;19.20;3.65;;;7.90;99.90;;;;;;5071614;28;20076;-55
2023/01/13 07:06:29;;;;;;;22.05;3.28;;;7.90;99.90;;;;;;5068243;28;20176;-55
2023/01/13 07:08:56;;;;;;;24.27;3.88;;;7.90;99.90;;;;;;5068699;28;20060;-48
2023/01/13 07:11:24;;;;;;;30.42;4.15;;;7.90;99.90;;;;;;5069742;28;20078;-55
2023/01/13 07:16:35;;;;;;;23.27;3.70;;;7.90;99.90;;;;;;5060555;28;21514;-53
2023/01/13 07:19:02;;;;;;;25.17;4.07;;;7.90;99.90;;;;;;5053857;28;20048;-48
2023/01/13 07:21:29;;;;;;;26.30;3.80;;;7.80;99.90;;;;;;5072806;28;20110;-50
2023/01/13 07:23:56;;;;;;;23.73;4.07;;;7.80;99.90;;;;;;5041313;28;20099;-53
2023/01/13 07:26:24;;;;;;;25.00;3.60;;;7.80;99.90;;;;;;5035863;28;20543;-54
2023/01/13 07:28:51;;;;;;;33.05;4.72;;;7.80;99.90;;;;;;5054696;28;20080;-61
2023/01/13 07:31:19;;;;;;;24.75;3.75;;;7.80;99.90;;;;;;5065544;28;20095;-58
2023/01/13 07:33:46;;;;;;;28.08;4.22;;;7.70;99.90;;;;;;5058357;28;20091;-60
2023/01/13 07:36:13;;;;;;;31.83;5.30;;;7.70;99.90;;;;;;5060533;28;20057;-57
2023/01/13 07:38:40;;;;;;;36.08;4.07;;;7.70;99.90;;;;;;5055144;28;20088;-56
2023/01/13 07:43:49;;;;;;;28.67;4.03;;;7.60;99.90;;;;;;5071883;28;20052;-64
2023/01/13 07:46:15;;;;;;;34.03;5.03;;;7.60;99.90;;;;;;5054726;28;20577;-64
2023/01/13 07:48:42;;;;;;;35.33;4.93;;;7.60;99.90;;;;;;5068112;28;20109;-54
2023/01/13 07:51:10;;;;;;;24.17;3.75;;;7.60;99.90;;;;;;5068283;28;20049;-62
2023/01/13 07:53:38;;;;;;;31.58;3.60;;;7.60;99.90;;;;;;5052896;28;20099;-58
2023/01/13 07:56:06;;;;;;;40.20;5.18;;;7.50;99.90;;;;;;5066497;28;20476;-62
2023/01/13 07:58:33;;;;;;;36.10;4.13;;;7.50;99.90;;;;;;5055443;28;20156;-63
2023/01/13 08:01:06;;;;;;;31.00;4.22;;;7.50;99.90;;;;;;5071960;28;20135;-61
2023/01/13 08:03:33;;;;;;;31.00;4.25;;;7.50;99.90;;;;;;5072501;28;20049;-59
2023/01/13 08:06:00;;;;;;;29.73;4.50;;;7.50;99.90;;;;;;5052925;28;20550;-60
2023/01/13 08:08:27;;;;;;;36.25;4.65;;;7.40;99.90;;;;;;5070511;28;20091;-53
2023/01/13 08:10:54;;;;;;;32.50;4.50;;;7.40;99.90;;;;;;5072530;28;20048;-61
2023/01/13 08:13:20;;;;;;;31.80;4.38;;;7.40;99.90;;;;;;5071247;28;20094;-59
2023/01/13 08:15:48;;;;;;;31.95;3.78;;;7.40;99.90;;;;;;5052026;28;20052;-59
2023/01/13 08:18:18;;;;;;;32.10;4.88;;;7.50;99.90;;;;;;5052055;28;20056;-62
2023/01/13 08:20:45;;;;;;;33.85;4.63;;;7.40;99.90;;;;;;5055081;28;20056;-59
2023/01/13 08:23:12;;;;;;;31.83;4.00;;;7.40;99.90;;;;;;5070538;28;20087;-59
2023/01/13 08:25:39;;;;;;;38.10;5.05;;;7.40;99.90;;;;;;5070946;28;20491;-58
2023/01/13 08:28:05;;;;;;;32.60;4.30;;;7.40;99.90;;;;;;5071063;28;20119;-58
2023/01/13 08:30:32;;;;;;;34.47;4.95;;;7.40;99.90;;;;;;5052962;28;20045;-58
2023/01/13 08:32:59;;;;;;;29.77;4.85;;;7.40;99.90;;;;;;5035123;28;20096;-55
2023/01/13 08:35:27;;;;;;;34.05;4.70;;;7.40;99.90;;;;;;5045373;28;20053;-59
2023/01/13 08:37:54;;;;;;;38.50;4.20;;;7.40;99.90;;;;;;5052630;28;20126;-58
2023/01/13 08:40:21;;;;;;;37.45;5.35;;;7.40;99.90;;;;;;5072650;28;20474;-59
2023/01/13 08:42:48;;;;;;;33.30;4.70;;;7.40;99.90;;;;;;5053317;28;20056;-58
2023/01/13 08:45:14;;;;;;;40.88;5.22;;;7.40;99.90;;;;;;5052964;28;20403;-58
2023/01/13 08:47:41;;;;;;;36.08;5.78;;;7.40;99.90;;;;;;5070665;28;20127;-56
2023/01/13 08:50:09;;;;;;;35.35;4.70;;;7.40;99.90;;;;;;5054889;28;20048;-54
2023/01/13 08:52:37;;;;;;;32.90;4.50;;;7.40;99.90;;;;;;5051925;28;20096;-57
2023/01/13 08:55:04;;;;;;;40.17;6.35;;;7.40;99.90;;;;;;5068628;28;20048;-58
2023/01/13 08:57:31;;;;;;;39.03;5.28;;;7.40;99.90;;;;;;5068634;28;20101;-57
2023/01/13 08:59:58;;;;;;;39.63;5.80;;;7.40;99.90;;;;;;5070879;28;20071;-57
2023/01/13 09:02:25;;;;;;;32.20;5.40;;;7.50;99.90;;;;;;5071903;28;20052;-56
2023/01/13 09:04:52;;;;;;;34.45;4.43;;;7.50;99.90;;;;;;5053175;28;20063;-56
2023/01/13 09:07:18;;;;;;;29.05;4.93;;;7.50;99.90;;;;;;5072448;28;20045;-56
2023/01/13 09:09:47;;;;;;;26.20;4.75;;;7.50;99.90;;;;;;5049630;28;20084;-56
2023/01/13 09:14:58;;;;;;;48.08;5.45;;;7.50;99.90;;;;;;5067809;28;20052;-53
2023/01/13 09:17:26;;;;;;;30.58;5.32;;;7.50;99.90;;;;;;5048283;28;20469;-56
2023/01/13 09:19:52;;;;;;;37.42;4.82;;;7.50;99.90;;;;;;5034394;28;20077;-55
2023/01/13 09:22:19;;;;;;;36.65;5.00;;;7.50;99.90;;;;;;5053674;28;20131;-58
2023/01/13 09:24:47;;;;;;;34.88;4.75;;;7.60;99.90;;;;;;5053566;28;20048;-60
2023/01/13 09:27:15;;;;;;;37.60;5.18;;;7.60;99.90;;;;;;5068887;28;20123;-56
2023/01/13 09:29:41;;;;;;;33.10;4.50;;;7.60;99.90;;;;;;5071044;28;20399;-59
2023/01/13 09:32:11;;;;;;;31.20;4.93;;;7.70;99.90;;;;;;5069037;28;20091;-60
2023/01/13 09:37:22;;;;;;;31.25;4.30;;;7.70;99.90;;;;;;5075514;28;20044;-60
2023/01/13 09:39:50;;;;;;;37.10;5.00;;;7.70;99.90;;;;;;5056480;28;20052;-58
2023/01/13 09:45:06;;;;;;;31.50;5.72;;;7.70;99.90;;;;;;5049665;28;20085;-57
2023/01/13 09:47:35;;;;;;;32.83;5.82;;;7.70;99.90;;;;;;5040508;28;20090;-60
2023/01/13 09:50:08;;;;;;;39.63;5.15;;;7.70;99.90;;;;;;5074398;28;20392;-61
2023/01/13 09:52:34;;;;;;;41.65;5.28;;;7.70;99.90;;;;;;5056924;28;20052;-62
2023/01/13 09:55:04;;;;;;;37.70;5.03;;;7.60;99.90;;;;;;5073820;28;20061;-61
2023/01/13 09:57:35;;;;;;;36.55;5.68;;;7.70;99.90;;;;;;5074390;28;20510;-60
2023/01/13 10:00:02;;;;;;;35.97;5.28;;;7.60;99.90;;;;;;5073508;28;20037;-61
2023/01/13 10:02:33;;;;;;;33.17;5.28;;;7.70;99.90;;;;;;5074119;28;20457;-61
2023/01/13 10:05:05;;;;;;;33.13;5.28;;;7.70;99.90;;;;;;5075279;28;20084;-55
2023/01/13 10:07:32;;;;;;;;;;;7.70;99.90;;;;;;5072050;28;20053;-60
2023/01/13 10:09:58;;;;;;;39.35;5.75;;;7.70;99.90;;;;;;5072101;28;19921;-59
2023/01/13 10:15:13;;;;;;;38.25;4.78;;;7.70;99.90;;;;;;5073361;28;20134;-61
2023/01/13 10:17:44;;;;;;;41.92;5.97;;;7.70;99.90;;;;;;5074092;28;20048;-60
2023/01/13 10:20:15;;;;;;;40.92;6.05;;;7.70;99.90;;;;;;5054847;28;20540;-60
2023/01/13 10:22:50;;;;;;;30.58;5.07;;;7.70;99.90;;;;;;5073570;28;20044;-58
2023/01/13 10:25:37;;;;;;;34.90;5.30;;;7.80;99.90;;;;;;5074611;28;20052;-60
2023/01/13 10:28:09;;;;;;;41.58;6.45;;;7.80;99.90;;;;;;5070930;28;20135;-58
2023/01/13 10:30:38;;;;;;;43.13;5.38;;;7.80;99.90;;;;;;5073562;28;20087;-56
2023/01/13 10:33:10;;;;;;;36.47;5.15;;;7.80;99.90;;;;;;5072548;28;20060;-56
2023/01/13 10:35:57;;;;;;;41.22;5.03;;;7.80;99.90;;;;;;5057256;28;20098;-59
2023/01/13 10:38:26;;;;;;;39.22;5.07;;;7.80;99.90;;;;;;5037013;28;20459;-60
2023/01/13 10:40:53;;;;;;;31.70;5.13;;;7.90;99.90;;;;;;5071088;28;20053;-59
2023/01/13 10:43:21;;;;;;;41.88;5.43;;;7.80;99.90;;;;;;5055556;28;20084;-57
2023/01/13 10:46:00;;;;;;;38.83;6.05;;;7.80;99.90;;;;;;5059563;28;20128;-58
2023/01/13 10:48:34;;;;;;;40.10;5.30;;;7.80;99.90;;;;;;5072723;28;20057;-57
2023/01/13 10:51:11;;;;;;;41.47;5.75;;;7.90;99.90;;;;;;5055708;28;20092;-60
2023/01/13 10:53:45;;;;;;;39.05;5.35;;;7.90;99.90;;;;;;5056510;28;20099;-61
2023/01/13 10:56:15;;;;;;;38.10;5.13;;;7.90;99.90;;;;;;5072445;28;20128;-59
2023/01/13 10:58:44;;;;;;;42.30;5.30;;;7.90;99.90;;;;;;5054162;28;20105;-62
2023/01/13 11:01:20;;;;;;;46.75;6.53;;;7.90;99.90;;;;;;5072232;28;20468;-62
2023/01/13 11:03:47;;;;;;;48.72;6.13;;;7.90;99.90;;;;;;5056578;28;20063;-62
2023/01/13 11:06:20;;;;;;;44.25;5.15;;;7.90;99.90;;;;;;5053808;28;20052;-55
2023/01/13 11:08:48;;;;;;;34.58;4.80;;;7.90;99.90;;;;;;5074223;28;20114;-57
2023/01/13 11:11:38;;;;;;;43.13;6.10;;;7.90;99.90;;;;;;5054438;28;20077;-58
2023/01/13 11:16:55;;;;;;;32.40;4.75;;;7.90;99.90;;;;;;5072212;28;20044;-57
2023/01/13 11:19:22;;;;;;;37.25;5.32;;;8.00;99.90;;;;;;5072354;28;20113;-56
2023/01/13 11:21:52;;;;;;;40.30;5.57;;;8.00;99.90;;;;;;5054081;28;20084;-55
2023/01/13 11:24:20;;;;;;;30.52;4.38;;;8.00;99.90;;;;;;5072017;28;20076;-55
2023/01/13 11:26:50;;;;;;;35.88;4.43;;;8.00;99.90;;;;;;5073463;28;20053;-57
2023/01/13 11:29:20;;;;;;;42.72;5.45;;;8.10;99.90;;;;;;5073030;28;20496;-57
2023/01/13 11:31:49;;;;;;;32.58;5.00;;;8.10;99.90;;;;;;5057068;28;20080;-59
2023/01/13 11:34:23;;;;;;;38.40;5.25;;;8.10;99.90;;;;;;5072912;28;20056;-58
2023/01/13 11:36:51;;;;;;;29.40;5.10;;;8.10;99.90;;;;;;5072044;28;20128;-58
2023/01/13 11:39:19;;;;;;;28.45;4.20;;;8.10;99.90;;;;;;5054897;28;20080;-59
2023/01/13 11:42:19;;;;;;;35.92;5.13;;;8.10;99.90;;;;;;5054113;28;20143;-59
2023/01/13 11:44:39;;;;;;;29.42;4.88;;;8.10;99.90;;;;;;5072952;28;20059;-58
2023/01/13 11:47:08;;;;;;;33.67;4.70;;;8.10;99.90;;;;;;5071258;28;20127;-54
2023/01/13 11:49:34;;;;;;;27.52;4.50;;;8.20;99.90;;;;;;5071029;28;20132;-53
2023/01/13 11:52:06;;;;;;;34.95;4.60;;;8.20;99.90;;;;;;5072742;28;20507;-57
2023/01/13 11:54:56;;;;;;;32.75;4.47;;;8.20;99.90;;;;;;5055499;28;20088;-56
2023/01/13 11:57:45;;;;;;;28.05;3.33;;;8.20;99.90;;;;;;5053916;28;20090;-56
2023/01/13 12:00:23;;;;;;;29.38;4.05;;;8.20;99.90;;;;;;5054559;28;20139;-49
2023/01/13 12:02:58;;;;;;;28.90;4.63;;;8.30;99.90;;;;;;5071582;28;20135;-57
2023/01/13 12:05:30;;;;;;;25.75;3.78;;;8.30;99.90;;;;;;5069178;28;20056;-52
2023/01/13 12:08:03;;;;;;;28.77;4.72;;;8.30;99.90;;;;;;5055327;28;20056;-56
2023/01/13 12:10:40;;;;;;;25.25;4.20;;;8.30;99.90;;;;;;5071443;28;20071;-55
2023/01/13 12:13:11;;;;;;;30.70;4.90;;;8.30;99.90;;;;;;5051213;28;20068;-55
2023/01/13 12:16:07;;;;;;;26.63;4.10;;;8.40;99.90;;;;;;5072719;28;20049;-56
2023/01/13 12:18:43;;;;;;;27.17;4.22;;;8.40;99.90;;;;;;5042680;28;20111;-57
2023/01/13 12:21:18;;;;;;;23.38;4.28;;;8.40;99.90;;;;;;5040311;28;20091;-54
2023/01/13 12:23:48;;;;;;;31.20;3.97;;;8.40;99.90;;;;;;5055071;28;20048;-56
2023/01/13 12:26:15;;;;;;;33.05;3.63;;;8.50;99.90;;;;;;5054661;28;20049;-54
2023/01/13 12:28:46;;;;;;;26.60;4.10;;;8.50;99.90;;;;;;5071920;28;20497;-52
2023/01/13 12:31:15;;;;;;;27.52;3.75;;;8.60;99.90;;;;;;5051153;28;20551;-56
2023/01/13 12:33:51;;;;;;;23.58;3.83;;;8.60;99.90;;;;;;5065766;28;20052;-56
2023/01/13 12:36:22;;;;;;;27.65;4.10;;;8.60;99.90;;;;;;5071633;28;20135;-55
2023/01/13 12:38:49;;;;;;;26.98;4.00;;;8.60;99.90;;;;;;5054470;28;20106;-57
2023/01/13 12:41:22;;;;;;;29.55;4.25;;;8.60;99.90;;;;;;5054931;28;20131;-57
2023/01/13 12:46:49;;;;;;;21.20;3.88;;;8.60;99.90;;;;;;5068165;28;20052;-56
2023/01/13 12:49:21;;;;;;;25.40;3.28;;;8.70;99.90;;;;;;5071289;28;20056;-56
2023/01/13 12:52:17;;;;;;;21.38;3.28;;;8.60;99.90;;;;;;5054687;28;20087;-56
2023/01/13 12:55:17;;;;;;;26.50;3.70;;;8.60;99.90;;;;;;5068903;28;20052;-57
2023/01/13 12:58:14;;;;;;;20.95;3.38;;;8.60;99.90;;;;;;5050766;28;20111;-55
2023/01/13 13:00:54;;;;;;;22.15;3.58;;;8.60;99.90;;;;;;5052345;28;20052;-55
2023/01/13 13:03:32;;;;;;;21.83;3.22;;;8.60;99.90;;;;;;5035317;28;20171;-56
2023/01/13 13:06:06;;;;;;;32.88;3.35;;;8.60;99.90;;;;;;5052453;28;20053;-56
2023/01/13 13:08:50;;;;;;;19.23;3.28;;;8.60;99.90;;;;;;5072128;28;20057;-55
2023/01/13 13:14:59;;;;;;;16.63;3.30;;;8.70;99.90;;;;;;5056139;28;20061;-52
2023/01/13 13:17:44;;;;;;;23.52;3.95;;;8.70;99.90;;;;;;5029551;28;20057;-56
2023/01/13 13:20:45;;;;;;;18.15;2.90;;;8.70;99.90;;;;;;5072511;28;20057;-52
2023/01/13 13:23:35;;;;;;;22.15;3.35;;;8.70;99.90;;;;;;5073850;28;20563;-54
2023/01/13 13:26:05;;;;;;;19.65;3.33;;;8.70;99.90;;;;;;5074768;28;20052;-51
2023/01/13 13:28:34;;;;;;;22.63;2.72;;;8.70;99.90;;;;;;5075938;28;20041;-54
2023/01/13 13:31:07;;;;;;;17.77;3.10;;;8.70;99.90;;;;;;5057013;28;20094;-53
2023/01/13 13:33:45;;;;;;;20.17;3.78;;;8.70;99.90;;;;;;5075985;28;20056;-53
2023/01/13 13:36:18;;;;;;;16.15;2.97;;;8.70;99.90;;;;;;5058587;28;20110;-54
2023/01/13 13:47:19;;;;;;;17.13;3.22;;;8.70;99.90;;;;;;5067668;28;20056;-52
2023/01/13 13:49:51;;;;;;;17.45;2.95;;;8.80;99.90;;;;;;5074569;28;20084;-53
2023/01/13 13:52:18;;;;;;;;;;;8.80;99.90;;;;;;5073523;28;20044;-50
2023/01/13 13:54:48;;;;;;;18.15;2.83;;;8.80;99.90;;;;;;5075724;28;19927;-53
2023/01/13 13:57:16;;;;;;;22.25;3.30;;;8.70;99.90;;;;;;5075458;28;20056;-50
2023/01/13 13:59:43;;;;;;;21.92;3.40;;;8.70;99.90;;;;;;5074542;28;20068;-53
2023/01/13 14:02:18;;;;;;;20.13;3.17;;;8.70;99.90;;;;;;5075436;28;20083;-54
2023/01/13 14:04:45;;;;;;;19.42;2.78;;;8.70;99.90;;;;;;5057357;28;20053;-54
2023/01/13 14:07:19;;;;;;;26.30;4.53;;;8.70;99.90;;;;;;5074795;28;20094;-53